Time;durP1;ratioP1;P1;durP2;ratioP2;P2;SDS_P1;SDS_P2;PMS_P1;PMS_P2;Temp;Humidity;BMP_temperature;BMP_pressure;BME280_temperature;BME280_humidity;BME280_pressure;Samples;Min_cycle;Max_cycle;Signal;HPM_P1;HPM_P2
2021/09/21 00:01:59;;;;;;;9.73;3.80;;;14.00;80.50;;;;;;5030734;28;20030;-84
2021/09/21 00:04:27;;;;;;;5.45;2.83;;;14.00;80.70;;;;;;5032101;28;20534;-84
2021/09/21 00:06:54;;;;;;;5.97;3.03;;;14.00;80.70;;;;;;5023679;28;20026;-85
2021/09/21 00:09:20;;;;;;;7.47;3.05;;;13.90;80.80;;;;;;5021346;28;20030;-85
2021/09/21 00:11:45;;;;;;;5.35;3.00;;;13.90;80.80;;;;;;5027595;28;20106;-84
2021/09/21 00:14:11;;;;;;;7.32;2.90;;;13.80;80.70;;;;;;5022701;28;20482;-84
2021/09/21 00:16:37;;;;;;;7.75;2.92;;;13.80;81.50;;;;;;5031963;28;20479;-84
2021/09/21 00:19:03;;;;;;;4.55;2.88;;;13.80;81.10;;;;;;5042489;28;20041;-84
2021/09/21 00:21:29;;;;;;;7.90;2.58;;;13.70;81.30;;;;;;5035501;28;20026;-85
2021/09/21 00:23:54;;;;;;;4.38;2.63;;;13.70;81.40;;;;;;5035599;28;20028;-85
2021/09/21 00:26:20;;;;;;;5.10;2.63;;;13.70;81.20;;;;;;5008639;28;20121;-85
2021/09/21 00:28:47;;;;;;;6.07;2.88;;;13.70;81.20;;;;;;5020614;28;20096;-84
2021/09/21 00:31:14;;;;;;;5.05;2.60;;;13.60;81.40;;;;;;5035389;28;20056;-85
2021/09/21 00:33:51;;;;;;;4.85;2.85;;;13.60;81.30;;;;;;5020518;28;20057;-84
2021/09/21 00:36:17;;;;;;;5.97;2.88;;;13.50;81.60;;;;;;5016457;28;20034;-85
2021/09/21 00:38:43;;;;;;;4.72;2.92;;;13.50;82.00;;;;;;5055097;28;20029;-85
2021/09/21 00:41:09;;;;;;;6.07;2.80;;;13.50;82.00;;;;;;5053597;28;20025;-85
2021/09/21 00:43:35;;;;;;;4.05;2.67;;;13.50;82.40;;;;;;5053384;28;20029;-85
2021/09/21 00:46:01;;;;;;;5.75;3.08;;;13.50;82.30;;;;;;5020594;28;20029;-85
2021/09/21 00:48:26;;;;;;;5.13;2.60;;;13.40;82.30;;;;;;5020372;28;20040;-85
2021/09/21 00:50:52;;;;;;;5.20;2.92;;;13.50;82.30;;;;;;5036825;28;20025;-85
2021/09/21 00:53:19;;;;;;;5.20;3.22;;;13.40;82.20;;;;;;5020403;28;20037;-85
2021/09/21 00:55:46;;;;;;;5.72;2.45;;;13.40;82.00;;;;;;5036700;28;20171;-85
2021/09/21 00:58:11;;;;;;;4.85;2.55;;;13.40;82.30;;;;;;5053161;28;20017;-85
2021/09/21 01:00:37;;;;;;;4.57;3.05;;;13.30;82.00;;;;;;5036769;28;20180;-85
2021/09/21 01:03:03;;;;;;;5.32;2.83;;;13.30;82.20;;;;;;5036707;28;20029;-84
2021/09/21 01:05:31;;;;;;;5.35;2.88;;;13.30;82.40;;;;;;5036841;28;20013;-85
2021/09/21 01:07:57;;;;;;;5.25;3.20;;;13.30;82.60;;;;;;5036744;28;20075;-85
2021/09/21 01:10:26;;;;;;;5.57;2.90;;;13.20;82.60;;;;;;5019991;28;20029;-84
2021/09/21 01:12:52;;;;;;;3.85;2.35;;;13.20;82.60;;;;;;5052949;28;20119;-85
2021/09/21 01:15:18;;;;;;;3.72;2.50;;;13.20;82.80;;;;;;5034098;28;20029;-85
2021/09/21 01:17:45;;;;;;;6.43;3.20;;;13.10;82.90;;;;;;5036419;28;20029;-85
2021/09/21 01:20:12;;;;;;;5.55;2.92;;;13.10;83.00;;;;;;5037557;28;20025;-85
2021/09/21 01:22:38;;;;;;;5.70;3.10;;;13.10;83.20;;;;;;5036340;28;20025;-85
2021/09/21 01:25:05;;;;;;;5.90;2.85;;;13.10;83.40;;;;;;5036632;28;20067;-85
2021/09/21 01:27:31;;;;;;;4.38;2.97;;;13.10;83.50;;;;;;5052164;28;20025;-84
2021/09/21 01:29:57;;;;;;;5.82;3.08;;;13.00;83.60;;;;;;5054224;28;20029;-85
2021/09/21 01:32:23;;;;;;;5.85;2.92;;;13.00;83.40;;;;;;5053942;28;20036;-84
2021/09/21 01:34:49;;;;;;;6.43;3.25;;;13.00;83.70;;;;;;5036564;28;20096;-86
2021/09/21 01:37:14;;;;;;;4.72;3.05;;;13.00;83.60;;;;;;5036121;28;20037;-85
2021/09/21 01:39:42;;;;;;;4.95;3.10;;;13.00;83.90;;;;;;5036111;28;20380;-87
2021/09/21 01:42:08;;;;;;;4.32;2.92;;;12.90;84.00;;;;;;5022476;28;20110;-88
2021/09/21 01:44:34;;;;;;;4.80;2.95;;;12.90;84.00;;;;;;5052971;28;20477;-88
2021/09/21 01:47:03;;;;;;;6.15;2.90;;;12.90;84.20;;;;;;5037404;28;20083;-86
2021/09/21 01:49:35;;;;;;;4.47;2.95;;;12.90;84.10;;;;;;4992104;28;20367;-88
2021/09/21 01:58:16;;;;;;;5.78;3.00;;;12.80;83.70;;;;;;4999591;28;20041;-88
2021/09/21 02:00:49;;;;;;;6.15;3.55;;;12.80;84.20;;;;;;5020791;28;20083;-87
2021/09/21 02:03:15;;;;;;;5.32;3.47;;;12.70;84.20;;;;;;5022381;28;20496;-88
2021/09/21 02:05:40;;;;;;;7.65;2.97;;;12.70;84.20;;;;;;5019154;28;20108;-86
2021/09/21 02:08:06;;;;;;;7.40;3.80;;;12.70;84.10;;;;;;5035506;28;20385;-85
2021/09/21 02:10:32;;;;;;;7.13;3.70;;;12.70;84.20;;;;;;5035956;28;20370;-88
2021/09/21 02:12:57;;;;;;;7.32;3.75;;;12.60;84.20;;;;;;5035795;28;20041;-87
2021/09/21 02:15:23;;;;;;;5.70;3.35;;;12.60;84.30;;;;;;5053271;28;20381;-88
2021/09/21 02:17:49;;;;;;;5.30;3.45;;;12.60;84.40;;;;;;5016561;28;20049;-87
2021/09/21 02:20:15;;;;;;;4.60;2.92;;;12.60;84.90;;;;;;5030536;28;20053;-88
2021/09/21 02:22:41;;;;;;;4.70;2.78;;;12.50;84.60;;;;;;5052510;28;20439;-88
2021/09/21 02:25:07;;;;;;;7.20;2.88;;;12.50;84.30;;;;;;5053236;28;20029;-87
2021/09/21 02:27:33;;;;;;;5.18;3.30;;;12.40;83.90;;;;;;5035564;28;20032;-88
2021/09/21 02:29:58;;;;;;;4.35;2.80;;;12.30;83.70;;;;;;5035383;28;20116;-87
2021/09/21 02:32:24;;;;;;;5.32;3.10;;;12.20;84.00;;;;;;5015473;28;20122;-87
2021/09/21 02:34:50;;;;;;;3.88;2.58;;;12.10;84.70;;;;;;5030844;28;20025;-88
2021/09/21 02:37:16;;;;;;;4.95;3.45;;;12.00;85.60;;;;;;5003281;28;20492;-87
2021/09/21 02:39:43;;;;;;;6.18;3.28;;;12.00;86.20;;;;;;4995505;28;20069;-88
2021/09/21 02:42:09;;;;;;;5.45;3.28;;;12.00;86.00;;;;;;5038123;28;20021;-88
2021/09/21 02:44:36;;;;;;;5.15;3.15;;;11.90;86.10;;;;;;5025851;28;20026;-88
2021/09/21 02:47:03;;;;;;;5.60;3.40;;;11.90;85.90;;;;;;5020817;28;20100;-88
2021/09/21 02:49:29;;;;;;;6.65;3.20;;;11.90;86.20;;;;;;5022655;28;20394;-87
2021/09/21 02:51:54;;;;;;;4.78;3.17;;;11.80;86.40;;;;;;5015651;28;20029;-87
2021/09/21 02:54:20;;;;;;;7.50;3.60;;;11.80;87.00;;;;;;5032196;28;20044;-87
2021/09/21 02:56:46;;;;;;;5.60;3.30;;;11.80;87.00;;;;;;5015188;28;20026;-88
2021/09/21 02:59:11;;;;;;;5.50;3.22;;;11.80;87.10;;;;;;5025629;28;20047;-88
2021/09/21 03:01:37;;;;;;;6.18;3.30;;;11.80;87.00;;;;;;5031734;28;20107;-88
2021/09/21 03:04:08;;;;;;;6.25;3.53;;;11.80;87.00;;;;;;5011869;28;20416;-88
2021/09/21 03:06:39;;;;;;;5.72;3.40;;;11.80;87.50;;;;;;4987633;28;20475;-88
2021/09/21 03:17:28;;;;;;;5.65;3.83;;;11.70;87.60;;;;;;5032688;28;20057;-88
2021/09/21 03:19:58;;;;;;;6.75;3.55;;;11.60;88.00;;;;;;5028524;28;20045;-87
2021/09/21 03:22:26;;;;;;;11.32;3.17;;;11.60;87.40;;;;;;5026952;28;20033;-88
2021/09/21 03:24:53;;;;;;;7.30;3.42;;;11.60;87.50;;;;;;5026483;28;20057;-87
2021/09/21 03:27:19;;;;;;;4.82;3.35;;;11.60;87.70;;;;;;5016709;28;20429;-87
2021/09/21 03:29:51;;;;;;;5.63;3.25;;;11.60;87.80;;;;;;5012567;28;20026;-87
2021/09/21 03:32:17;;;;;;;6.38;3.38;;;11.50;87.30;;;;;;5025801;28;20042;-87
2021/09/21 03:34:43;;;;;;;6.57;3.45;;;11.50;87.20;;;;;;5024709;28;20029;-87
2021/09/21 03:37:10;;;;;;;5.68;3.60;;;11.50;87.30;;;;;;5038348;28;20110;-88
2021/09/21 03:39:38;;;;;;;6.50;4.07;;;11.50;87.70;;;;;;5061553;28;20106;-87
2021/09/21 03:42:04;;;;;;;6.22;3.95;;;11.50;88.00;;;;;;5034138;28;20132;-87
2021/09/21 03:44:29;;;;;;;6.32;3.90;;;11.50;87.90;;;;;;5046799;28;20064;-87
2021/09/21 03:46:55;;;;;;;6.28;4.13;;;11.50;87.80;;;;;;5067996;28;20043;-88
2021/09/21 03:49:21;;;;;;;7.32;3.78;;;11.50;87.80;;;;;;5058101;28;20021;-87
2021/09/21 03:51:48;;;;;;;6.38;3.65;;;11.50;87.90;;;;;;5065912;28;20032;-88
2021/09/21 03:54:13;;;;;;;5.43;3.40;;;11.40;88.10;;;;;;5070307;28;20300;-87
2021/09/21 03:56:39;;;;;;;5.80;3.55;;;11.40;88.30;;;;;;5044370;28;20093;-88
2021/09/21 03:59:06;;;;;;;5.82;3.70;;;11.40;88.40;;;;;;5056567;28;20103;-88
2021/09/21 04:01:33;;;;;;;6.15;4.05;;;11.40;88.50;;;;;;5046818;28;20033;-87
2021/09/21 04:03:59;;;;;;;6.90;3.67;;;11.40;88.40;;;;;;5037017;28;20025;-87
2021/09/21 04:06:28;;;;;;;5.63;3.55;;;11.40;88.40;;;;;;5035551;28;20025;-87
2021/09/21 04:08:57;;;;;;;5.03;3.47;;;11.40;88.30;;;;;;5055415;28;20116;-88
2021/09/21 04:11:22;;;;;;;6.72;3.80;;;11.30;88.40;;;;;;5054480;28;20021;-87
2021/09/21 04:13:49;;;;;;;6.18;3.50;;;11.40;88.80;;;;;;5061312;28;20509;-88
2021/09/21 04:16:14;;;;;;;7.30;4.00;;;11.40;89.00;;;;;;5066959;28;20071;-88
2021/09/21 04:18:40;;;;;;;5.82;3.75;;;11.30;89.30;;;;;;5052075;28;20021;-86
2021/09/21 04:21:06;;;;;;;6.05;3.72;;;11.30;89.30;;;;;;5012518;28;20117;-88
2021/09/21 04:23:32;;;;;;;6.30;4.05;;;11.30;89.80;;;;;;5037043;28;20032;-88
2021/09/21 04:25:58;;;;;;;5.95;3.75;;;11.20;89.50;;;;;;5041515;28;20398;-86
2021/09/21 04:28:24;;;;;;;5.68;3.75;;;11.20;89.20;;;;;;5036499;28;20029;-87
2021/09/21 04:30:50;;;;;;;6.20;3.80;;;11.10;89.10;;;;;;5034178;28;20025;-86
2021/09/21 04:33:16;;;;;;;6.82;3.53;;;11.10;89.70;;;;;;5020940;28;20043;-87
2021/09/21 04:35:42;;;;;;;6.47;4.13;;;11.10;90.00;;;;;;5017821;28;20108;-88
2021/09/21 04:38:09;;;;;;;5.70;4.00;;;11.00;90.00;;;;;;5006117;28;20052;-88
2021/09/21 04:40:35;;;;;;;5.85;3.90;;;11.00;90.00;;;;;;5028434;28;20072;-87
2021/09/21 04:43:00;;;;;;;6.82;4.13;;;11.00;90.00;;;;;;5015021;28;20076;-87
2021/09/21 04:45:36;;;;;;;5.97;3.60;;;11.00;90.20;;;;;;5019894;28;20017;-87
2021/09/21 04:48:13;;;;;;;7.55;4.00;;;11.00;90.40;;;;;;5039090;28;20030;-87
2021/09/21 04:50:39;;;;;;;6.50;3.92;;;11.00;90.50;;;;;;5035865;28;20111;-88
2021/09/21 04:53:05;;;;;;;6.00;4.00;;;11.00;90.40;;;;;;5034651;28;20029;-87
2021/09/21 04:55:31;;;;;;;5.60;3.90;;;11.00;90.40;;;;;;5032000;28;20025;-87
2021/09/21 04:57:56;;;;;;;6.38;3.95;;;11.00;90.40;;;;;;5037909;28;20379;-87
2021/09/21 05:00:22;;;;;;;9.10;4.05;;;11.00;90.40;;;;;;5023392;28;20123;-87
2021/09/21 05:02:48;;;;;;;6.80;4.00;;;11.00;90.60;;;;;;5032785;28;20041;-87
2021/09/21 05:05:16;;;;;;;8.63;4.00;;;11.10;90.90;;;;;;5026548;28;20026;-87
2021/09/21 05:07:42;;;;;;;8.98;4.47;;;11.10;90.70;;;;;;5032173;28;20018;-88
2021/09/21 05:10:08;;;;;;;6.72;4.22;;;11.10;90.80;;;;;;5011578;28;20037;-87
2021/09/21 05:12:34;;;;;;;6.50;4.22;;;11.10;90.90;;;;;;5013901;28;20036;-88
2021/09/21 05:15:00;;;;;;;6.50;4.30;;;11.10;91.00;;;;;;5016884;28;20029;-89
2021/09/21 05:17:26;;;;;;;7.00;3.80;;;11.10;91.00;;;;;;5048975;28;20112;-89
2021/09/21 05:19:52;;;;;;;6.45;4.50;;;11.10;91.00;;;;;;5007356;28;20099;-89
2021/09/21 05:22:18;;;;;;;6.70;4.43;;;11.10;91.20;;;;;;5017806;28;20109;-88
2021/09/21 05:24:43;;;;;;;6.57;4.35;;;11.10;91.10;;;;;;5013941;28;20026;-88
2021/09/21 05:27:09;;;;;;;5.57;3.90;;;11.10;91.20;;;;;;4991531;28;20120;-89
2021/09/21 05:29:35;;;;;;;6.05;4.00;;;11.10;91.30;;;;;;5019813;28;20463;-88
2021/09/21 05:32:01;;;;;;;7.45;3.97;;;11.10;91.20;;;;;;5022999;28;20037;-89
2021/09/21 05:34:26;;;;;;;8.93;4.43;;;11.20;91.30;;;;;;5031935;28;20022;-88
2021/09/21 05:36:54;;;;;;;7.07;4.40;;;11.20;91.40;;;;;;5050776;23;20054;-89
2021/09/21 05:39:20;;;;;;;11.10;4.55;;;11.20;91.50;;;;;;5009931;28;20026;-88
2021/09/21 05:41:46;;;;;;;6.82;4.65;;;11.20;91.80;;;;;;5001692;28;20026;-88
2021/09/21 05:44:11;;;;;;;6.78;4.43;;;11.20;91.80;;;;;;5011312;28;20037;-88
2021/09/21 05:46:37;;;;;;;5.85;4.05;;;11.30;91.80;;;;;;5007765;28;20049;-88
2021/09/21 05:49:03;;;;;;;5.65;3.80;;;11.30;91.80;;;;;;5002885;28;20022;-88
2021/09/21 05:51:29;;;;;;;5.65;4.15;;;11.30;91.70;;;;;;4996679;28;20029;-88
2021/09/21 05:53:55;;;;;;;6.88;4.47;;;11.20;91.70;;;;;;5011375;28;20030;-88
2021/09/21 05:56:21;;;;;;;5.85;4.20;;;11.20;91.70;;;;;;5011669;28;20022;-89
2021/09/21 05:58:48;;;;;;;7.80;5.00;;;11.20;91.90;;;;;;5027587;28;20014;-88
2021/09/21 06:01:14;;;;;;;7.63;4.43;;;11.20;92.00;;;;;;5016416;28;20430;-88
2021/09/21 06:03:40;;;;;;;7.78;4.25;;;11.20;92.00;;;;;;5009644;28;20026;-88
2021/09/21 06:06:06;;;;;;;7.55;4.43;;;11.20;92.10;;;;;;5003768;28;20099;-89
2021/09/21 06:08:31;;;;;;;6.75;4.55;;;11.30;92.20;;;;;;4996518;28;20506;-88
2021/09/21 06:10:57;;;;;;;6.63;3.90;;;11.30;92.10;;;;;;4996550;28;20043;-88
2021/09/21 06:13:23;;;;;;;6.10;4.18;;;11.30;92.20;;;;;;5010158;28;20026;-88
2021/09/21 06:16:07;;;;;;;6.45;4.00;;;11.30;92.30;;;;;;5020366;28;20484;-89
2021/09/21 06:18:34;;;;;;;5.95;4.22;;;11.30;92.30;;;;;;5008938;28;20033;-88
2021/09/21 06:20:59;;;;;;;8.45;4.60;;;11.40;92.40;;;;;;5005145;28;20030;-88
2021/09/21 06:23:25;;;;;;;5.93;3.92;;;11.40;92.50;;;;;;5002119;28;20365;-88
2021/09/21 06:25:50;;;;;;;6.05;4.35;;;11.40;92.50;;;;;;5009709;28;20026;-88
2021/09/21 06:28:16;;;;;;;8.27;4.38;;;11.40;92.50;;;;;;5027820;28;20046;-88
2021/09/21 06:30:42;;;;;;;7.00;4.32;;;11.40;92.50;;;;;;4995693;28;20029;-88
2021/09/21 06:33:08;;;;;;;6.93;4.10;;;11.50;92.40;;;;;;5000833;28;20062;-88
2021/09/21 06:35:33;;;;;;;6.82;4.25;;;11.50;92.40;;;;;;4978160;28;20029;-88
2021/09/21 06:37:59;;;;;;;6.80;4.25;;;11.50;92.40;;;;;;4995568;28;20565;-88
2021/09/21 06:40:46;;;;;;;6.18;4.20;;;11.50;92.40;;;;;;5015505;28;20053;-88
2021/09/21 06:43:12;;;;;;;5.90;3.95;;;11.60;92.50;;;;;;5013617;28;20542;-88
2021/09/21 06:45:38;;;;;;;5.18;3.42;;;11.60;92.40;;;;;;5012176;28;20118;-88
2021/09/21 06:48:04;;;;;;;7.55;4.43;;;11.70;92.40;;;;;;5012305;28;20084;-88
2021/09/21 06:50:30;;;;;;;9.23;4.90;;;11.70;92.40;;;;;;4998399;28;20030;-88
2021/09/21 06:52:56;;;;;;;6.70;4.30;;;11.70;92.50;;;;;;5012153;28;20034;-88
2021/09/21 06:55:21;;;;;;;8.95;4.82;;;11.70;92.80;;;;;;4998863;28;20029;-88
2021/09/21 06:57:53;;;;;;;7.70;4.97;;;11.80;93.00;;;;;;5011415;28;20030;-85
2021/09/21 07:00:20;;;;;;;9.30;5.30;;;11.80;93.00;;;;;;5013009;28;20111;-85
2021/09/21 07:02:48;;;;;;;7.38;5.03;;;11.80;93.40;;;;;;5027733;28;20075;-85
2021/09/21 07:05:14;;;;;;;6.57;4.80;;;11.80;93.70;;;;;;5012765;28;20071;-85
2021/09/21 07:07:44;;;;;;;8.20;4.93;;;11.90;93.60;;;;;;5011130;28;20129;-85
2021/09/21 07:10:11;;;;;;;6.85;4.65;;;11.90;93.70;;;;;;5002194;28;20100;-85
2021/09/21 07:12:36;;;;;;;6.43;4.65;;;11.90;93.60;;;;;;5002274;28;20030;-85
2021/09/21 07:15:02;;;;;;;7.68;4.78;;;11.90;93.70;;;;;;5023607;28;20036;-85
2021/09/21 07:17:28;;;;;;;7.97;5.20;;;12.00;93.70;;;;;;5016117;28;20023;-85
2021/09/21 07:19:54;;;;;;;9.38;6.10;;;12.00;93.70;;;;;;5012008;28;20463;-85
2021/09/21 07:22:19;;;;;;;7.90;4.68;;;12.00;93.80;;;;;;5010343;28;20030;-85
2021/09/21 07:24:45;;;;;;;6.15;4.60;;;12.10;93.80;;;;;;5010257;28;20021;-86
2021/09/21 07:27:11;;;;;;;8.00;5.05;;;12.10;93.70;;;;;;5008714;28;20193;-85
2021/09/21 07:29:39;;;;;;;6.68;4.40;;;12.10;93.60;;;;;;4995081;28;20065;-85
2021/09/21 07:32:05;;;;;;;6.63;4.70;;;12.10;93.50;;;;;;5012337;28;20062;-85
2021/09/21 07:34:34;;;;;;;6.15;4.07;;;12.20;93.50;;;;;;4988771;28;20045;-85
2021/09/21 07:37:00;;;;;;;6.90;4.90;;;12.20;93.40;;;;;;4994688;28;20053;-88
2021/09/21 07:39:49;;;;;;;8.07;5.55;;;12.20;93.80;;;;;;5010037;28;20481;-87
2021/09/21 07:42:17;;;;;;;6.90;5.15;;;12.30;93.80;;;;;;5014268;28;20022;-86
2021/09/21 07:44:43;;;;;;;9.15;5.60;;;12.30;93.60;;;;;;4992528;28;20038;-85
2021/09/21 07:47:09;;;;;;;9.30;5.45;;;12.30;93.70;;;;;;4998589;28;20040;-87
2021/09/21 07:52:42;;;;;;;9.20;5.28;;;12.40;93.60;;;;;;5003096;28;20445;-87
2021/09/21 07:55:11;;;;;;;6.05;4.18;;;12.40;93.50;;;;;;5003961;28;20514;-88
2021/09/21 07:57:40;;;;;;;7.32;4.78;;;12.40;93.50;;;;;;4987116;28;20116;-87
2021/09/21 08:00:08;;;;;;;5.78;4.32;;;12.50;93.40;;;;;;5006016;28;20022;-86
2021/09/21 08:02:34;;;;;;;6.93;4.43;;;12.50;93.40;;;;;;5010851;28;20454;-87
2021/09/21 08:05:00;;;;;;;6.70;4.95;;;12.60;93.50;;;;;;5011991;28;20117;-86
2021/09/21 08:07:29;;;;;;;6.13;4.22;;;12.60;93.50;;;;;;4999412;28;20332;-86
2021/09/21 08:09:55;;;;;;;6.60;4.55;;;12.70;93.50;;;;;;5014852;28;20095;-87
2021/09/21 08:12:21;;;;;;;7.80;5.78;;;12.70;93.60;;;;;;5014919;28;20540;-85
2021/09/21 08:14:51;;;;;;;8.10;5.22;;;12.80;93.70;;;;;;5033649;28;20021;-85
2021/09/21 08:17:17;;;;;;;6.90;4.95;;;12.90;93.70;;;;;;5016629;28;20488;-85
2021/09/21 08:19:43;;;;;;;8.98;5.35;;;12.90;93.70;;;;;;4994980;28;20526;-84
2021/09/21 08:22:09;;;;;;;6.85;5.03;;;13.00;93.70;;;;;;5027192;28;20033;-85
2021/09/21 08:24:34;;;;;;;8.15;4.88;;;13.00;93.70;;;;;;4992770;28;20025;-84
2021/09/21 08:27:00;;;;;;;8.45;5.70;;;13.10;93.60;;;;;;5021097;28;20029;-85
2021/09/21 08:29:26;;;;;;;8.77;5.55;;;13.20;93.60;;;;;;5034313;28;20021;-85
2021/09/21 08:31:53;;;;;;;10.30;5.63;;;13.20;93.60;;;;;;5012994;28;20360;-85
2021/09/21 08:34:19;;;;;;;7.18;4.85;;;13.20;93.50;;;;;;5010853;28;20025;-86
2021/09/21 08:36:45;;;;;;;7.72;5.70;;;13.30;93.50;;;;;;5015805;28;20049;-85
2021/09/21 08:39:10;;;;;;;8.13;5.50;;;13.40;93.50;;;;;;4998235;28;20041;-86
2021/09/21 08:41:39;;;;;;;6.32;4.93;;;13.40;93.50;;;;;;4991808;28;20037;-85
2021/09/21 08:44:05;;;;;;;8.02;5.35;;;13.50;93.50;;;;;;5034113;28;20061;-86
2021/09/21 08:46:31;;;;;;;7.63;5.00;;;13.50;93.40;;;;;;5004119;28;20053;-85
2021/09/21 08:48:56;;;;;;;6.75;4.60;;;13.60;93.40;;;;;;4984501;28;20049;-87
2021/09/21 08:51:22;;;;;;;8.07;4.82;;;13.70;93.30;;;;;;5002445;28;20112;-86
2021/09/21 08:53:48;;;;;;;6.65;4.30;;;13.70;93.10;;;;;;5010001;28;20486;-86
2021/09/21 08:56:14;;;;;;;7.25;4.70;;;13.80;93.10;;;;;;4986972;28;20057;-86
2021/09/21 08:58:40;;;;;;;6.18;3.97;;;13.90;93.10;;;;;;5015017;28;20053;-86
2021/09/21 09:01:13;;;;;;;7.22;5.03;;;13.90;93.00;;;;;;5001095;28;20120;-85
2021/09/21 09:03:39;;;;;;;6.88;4.45;;;14.00;92.90;;;;;;5011843;28;20046;-86
2021/09/21 09:06:07;;;;;;;7.22;4.30;;;14.10;92.90;;;;;;4994690;28;20033;-86
2021/09/21 09:08:54;;;;;;;6.20;3.95;;;14.10;92.90;;;;;;5022817;28;20054;-85
2021/09/21 09:11:26;;;;;;;6.07;4.15;;;14.20;92.80;;;;;;5008288;28;20137;-85
2021/09/21 09:14:00;;;;;;;6.55;3.75;;;14.20;92.70;;;;;;5033123;28;20071;-84
2021/09/21 09:16:35;;;;;;;6.95;3.75;;;14.30;92.40;;;;;;5033270;28;20022;-85
2021/09/21 09:19:07;;;;;;;6.53;4.00;;;14.40;92.20;;;;;;5023610;28;20022;-85
2021/09/21 09:21:34;;;;;;;6.13;3.83;;;14.40;92.00;;;;;;5033813;28;20028;-84
2021/09/21 09:24:02;;;;;;;6.20;4.20;;;14.50;91.80;;;;;;5017253;28;20051;-84
2021/09/21 09:26:31;;;;;;;6.57;3.65;;;14.60;91.50;;;;;;4988036;28;20108;-86
2021/09/21 09:28:57;;;;;;;6.15;3.60;;;14.60;91.30;;;;;;5034707;28;20490;-85
2021/09/21 09:31:34;;;;;;;5.25;3.20;;;14.70;91.10;;;;;;5010820;28;20025;-85
2021/09/21 09:34:11;;;;;;;5.10;2.90;;;14.80;90.60;;;;;;5013254;28;20038;-86
2021/09/21 09:37:03;;;;;;;4.85;2.60;;;14.80;90.60;;;;;;5013908;28;20475;-85
2021/09/21 09:39:30;;;;;;;4.75;2.63;;;15.00;90.60;;;;;;5019694;28;20018;-86
2021/09/21 09:41:58;;;;;;;3.72;2.47;;;15.00;90.20;;;;;;4982489;28;20033;-85
2021/09/21 09:44:28;;;;;;;4.03;2.28;;;15.10;90.00;;;;;;5008463;28;20095;-85
2021/09/21 09:47:04;;;;;;;3.58;2.20;;;15.20;89.10;;;;;;5016371;28;20021;-85
2021/09/21 09:49:36;;;;;;;2.97;1.80;;;15.20;87.50;;;;;;5021137;28;20120;-85
2021/09/21 09:52:17;;;;;;;2.90;2.10;;;15.30;85.50;;;;;;5026561;28;20021;-85
2021/09/21 09:54:45;;;;;;;2.55;1.67;;;15.40;84.20;;;;;;5008272;28;20026;-85
2021/09/21 09:57:12;;;;;;;2.67;1.88;;;15.50;84.10;;;;;;4999587;28;20018;-84
2021/09/21 09:59:38;;;;;;;2.90;1.80;;;15.50;84.20;;;;;;5015637;28;20021;-85
2021/09/21 10:02:05;;;;;;;4.55;1.85;;;15.70;84.80;;;;;;5015905;28;20159;-85
2021/09/21 10:04:31;;;;;;;3.17;2.10;;;15.80;85.30;;;;;;5015687;28;20479;-85
2021/09/21 10:06:57;;;;;;;2.60;1.80;;;15.90;84.20;;;;;;5007087;28;20026;-85
2021/09/21 10:09:23;;;;;;;2.75;1.80;;;15.90;83.30;;;;;;5015589;28;20083;-85
2021/09/21 10:12:00;;;;;;;2.88;1.70;;;16.00;82.20;;;;;;5031983;28;20563;-85
2021/09/21 10:14:27;;;;;;;2.25;1.60;;;16.10;82.70;;;;;;5024438;28;20072;-85
2021/09/21 10:16:52;;;;;;;2.53;1.88;;;16.10;82.90;;;;;;5012010;28;20017;-85
2021/09/21 10:19:21;;;;;;;2.72;2.10;;;16.20;81.90;;;;;;5015259;28;20025;-85
2021/09/21 10:21:48;;;;;;;3.78;2.30;;;16.30;81.50;;;;;;5031931;28;20430;-85
2021/09/21 10:24:15;;;;;;;3.38;1.90;;;16.40;79.50;;;;;;5033289;28;20022;-85
2021/09/21 10:26:46;;;;;;;3.17;2.00;;;16.50;78.60;;;;;;5011191;28;20030;-85
2021/09/21 10:29:16;;;;;;;3.13;2.15;;;16.50;79.00;;;;;;4990201;28;20478;-85
2021/09/21 10:31:42;;;;;;;3.55;2.00;;;16.60;79.30;;;;;;5028867;28;20131;-85
2021/09/21 10:34:16;;;;;;;3.08;1.90;;;16.70;78.50;;;;;;4999225;28;20057;-85
2021/09/21 10:36:50;;;;;;;2.30;1.50;;;16.80;79.10;;;;;;4993592;28;20045;-85
2021/09/21 10:39:19;;;;;;;3.65;1.75;;;16.90;79.40;;;;;;5011953;28;20072;-85
2021/09/21 10:42:16;;;;;;;2.53;1.70;;;16.90;78.80;;;;;;5023494;28;20532;-85
2021/09/21 10:44:58;;;;;;;2.83;1.80;;;17.00;78.10;;;;;;4999380;28;20113;-85
2021/09/21 10:47:40;;;;;;;2.67;1.58;;;17.20;78.20;;;;;;5031463;28;20025;-85
2021/09/21 10:50:20;;;;;;;2.15;1.50;;;17.20;78.60;;;;;;5001428;28;20049;-85
2021/09/21 10:52:45;;;;;;;2.97;2.10;;;17.30;78.80;;;;;;5008120;28;20027;-85
2021/09/21 10:55:27;;;;;;;2.42;1.60;;;17.40;78.90;;;;;;5017296;28;20026;-85
2021/09/21 10:57:53;;;;;;;3.08;2.03;;;17.50;79.00;;;;;;5011658;28;20040;-85
2021/09/21 11:00:23;;;;;;;2.90;1.83;;;17.60;78.20;;;;;;4976188;28;20025;-83
2021/09/21 11:03:03;;;;;;;4.07;1.98;;;17.70;78.30;;;;;;5015145;28;20489;-84
2021/09/21 11:05:29;;;;;;;2.85;1.70;;;17.80;76.70;;;;;;5013743;28;20479;-84
2021/09/21 11:08:08;;;;;;;3.22;1.80;;;17.90;77.30;;;;;;5025439;28;20060;-85
2021/09/21 11:11:48;;;;;;;2.92;1.83;;;17.90;77.90;;;;;;5031500;28;20029;-84
2021/09/21 11:14:07;;;;;;;2.75;1.80;;;18.00;77.60;;;;;;4932504;29;20107;-87
2021/09/21 11:17:00;;;;;;;3.55;2.28;;;18.10;77.50;;;;;;4917150;29;20120;-87
2021/09/21 11:19:31;;;;;;;4.07;2.15;;;18.20;74.00;;;;;;4927587;29;20118;-87
2021/09/21 11:22:48;;;;;;;6.75;2.38;;;18.20;74.90;;;;;;4912296;29;20500;-87
2021/09/21 11:25:22;;;;;;;4.88;2.17;;;18.30;74.40;;;;;;4932050;29;20044;-84
2021/09/21 11:31:12;;;;;;;;;;;;;;;;;;;;;
2021/09/21 11:33:42;;;;;;;5.38;2.00;;;18.50;71.80;;;;;;4998213;28;20029;-84
2021/09/21 11:36:11;;;;;;;3.08;1.80;;;18.60;72.50;;;;;;5032269;23;20045;-87
2021/09/21 11:38:54;;;;;;;3.00;2.00;;;18.60;73.30;;;;;;4974033;28;20067;-87
2021/09/21 11:41:25;;;;;;;3.97;2.25;;;18.80;74.10;;;;;;4988137;28;20480;-85
2021/09/21 11:43:52;;;;;;;3.60;2.15;;;18.90;74.10;;;;;;4987967;28;20050;-85
2021/09/21 11:46:20;;;;;;;4.65;2.30;;;18.90;73.50;;;;;;4956075;28;20034;-85
2021/09/21 11:48:53;;;;;;;4.32;2.47;;;19.10;73.60;;;;;;4961848;28;20027;-86
2021/09/21 11:51:20;;;;;;;5.07;2.55;;;19.20;72.20;;;;;;4993118;28;20042;-85
2021/09/21 11:53:48;;;;;;;2.95;2.30;;;19.20;72.30;;;;;;4992545;28;20018;-85
2021/09/21 11:56:22;;;;;;;4.55;2.70;;;19.30;71.60;;;;;;4975145;28;20034;-85
2021/09/21 11:59:09;;;;;;;5.22;2.60;;;19.40;71.20;;;;;;4991600;28;20026;-87
2021/09/21 12:01:41;;;;;;;5.70;2.42;;;19.50;72.00;;;;;;5005234;28;20050;-87
2021/09/21 12:04:10;;;;;;;4.47;2.50;;;19.60;72.30;;;;;;4965232;28;20061;-86
2021/09/21 12:06:37;;;;;;;3.75;2.42;;;19.60;72.40;;;;;;4970017;28;20177;-86
2021/09/21 12:09:16;;;;;;;3.92;2.15;;;19.70;70.00;;;;;;4988031;28;20502;-87
2021/09/21 12:11:54;;;;;;;3.13;2.20;;;19.70;70.00;;;;;;4993152;28;20475;-86
2021/09/21 12:14:23;;;;;;;4.78;2.13;;;19.80;70.10;;;;;;4996496;28;20022;-87
2021/09/21 12:16:50;;;;;;;3.17;1.90;;;19.90;70.40;;;;;;4988598;28;20030;-86
2021/09/21 12:19:17;;;;;;;3.88;2.15;;;19.90;70.30;;;;;;4995132;28;20165;-86
2021/09/21 12:21:59;;;;;;;5.03;2.35;;;20.00;70.30;;;;;;4974311;28;20026;-87
2021/09/21 12:24:30;;;;;;;4.55;2.33;;;20.10;70.00;;;;;;4992070;28;20030;-87
2021/09/21 12:27:02;;;;;;;4.30;2.60;;;20.10;70.00;;;;;;5006440;28;20030;-87
2021/09/21 12:29:32;;;;;;;2.65;2.00;;;20.20;69.40;;;;;;4979219;28;20054;-86
2021/09/21 12:31:59;;;;;;;4.15;2.50;;;20.30;69.40;;;;;;4990864;28;20476;-87
2021/09/21 12:34:32;;;;;;;3.97;2.47;;;20.30;69.20;;;;;;4978601;28;20026;-86
2021/09/21 12:37:00;;;;;;;3.22;2.30;;;20.40;68.50;;;;;;4978451;28;20030;-86
2021/09/21 12:39:38;;;;;;;4.50;2.47;;;20.50;68.50;;;;;;4977464;28;20078;-86
2021/09/21 12:42:09;;;;;;;4.03;2.22;;;20.50;66.60;;;;;;4962394;28;20023;-87
2021/09/21 12:45:04;;;;;;;;;;;20.60;67.10;;;;;;4976262;28;20041;-86
2021/09/21 12:48:09;;;;;;;3.45;2.20;;;20.60;64.50;;;;;;4969468;28;20008;-86
2021/09/21 12:50:58;;;;;;;5.03;2.30;;;20.60;64.90;;;;;;4962824;28;20484;-86
2021/09/21 12:56:46;;;;;;;3.80;2.60;;;20.60;65.40;;;;;;4907512;29;20041;-86
2021/09/21 12:59:15;;;;;;;3.67;2.50;;;20.70;64.30;;;;;;4924735;29;20483;-86
2021/09/21 13:05:44;;;;;;;3.55;2.70;;;20.80;65.50;;;;;;4845874;29;20580;-87
2021/09/21 13:08:51;;;;;;;4.22;2.67;;;20.80;65.20;;;;;;4853986;29;20048;-86
2021/09/21 13:11:43;;;;;;;3.92;2.35;;;20.80;66.20;;;;;;4837947;29;20484;-86
2021/09/21 13:14:09;;;;;;;5.47;2.50;;;20.90;65.60;;;;;;4825681;29;20053;-86
2021/09/21 13:16:38;;;;;;;3.78;2.20;;;20.90;65.60;;;;;;4854665;29;20388;-86
2021/09/21 13:19:03;;;;;;;3.42;2.45;;;20.90;65.90;;;;;;4851066;29;20074;-86
2021/09/21 13:21:41;;;;;;;7.63;2.80;;;21.00;66.80;;;;;;4830008;29;20031;-87
2021/09/21 13:24:15;;;;;;;4.22;2.60;;;21.00;66.30;;;;;;4927310;29;20044;-86
2021/09/21 13:27:03;;;;;;;3.25;2.25;;;21.10;67.10;;;;;;4921748;29;20066;-86
2021/09/21 13:30:03;;;;;;;;;;;;;;;;;;;;;